createdAt,value
2023-01-22T00:00:19.872Z,101415.22
2023-01-22T00:03:08.838Z,101411.69
2023-01-22T00:05:38.533Z,101409.16
2023-01-22T00:08:07.764Z,101416.09
2023-01-22T00:10:36.934Z,101416.97
2023-01-22T00:13:07.094Z,101416.97
2023-01-22T00:15:39.684Z,101406.56
2023-01-22T00:18:08.545Z,101415.22
2023-01-22T00:20:37.997Z,101412.59
2023-01-22T00:23:06.894Z,101417.78
2023-01-22T00:25:36.110Z,101420.41
2023-01-22T00:28:06.307Z,101414.41
2023-01-22T00:30:35.459Z,101416.19
2023-01-22T00:33:04.437Z,101412.81
2023-01-22T00:35:36.444Z,101426.59
2023-01-22T00:38:05.282Z,101423.97
2023-01-22T00:40:35.185Z,101422.31
2023-01-22T00:43:04.055Z,101431.78
2023-01-22T00:45:34.495Z,101431.53
2023-01-22T00:48:03.413Z,101436.00
2023-01-22T00:50:32.850Z,101436.88
2023-01-22T00:53:03.873Z,101442.09
2023-01-22T00:55:32.937Z,101438.63
2023-01-22T00:58:01.722Z,101446.47
2023-01-22T01:00:31.163Z,101448.09
2023-01-22T01:03:18.723Z,101445.47
2023-01-22T01:05:47.861Z,101452.44
2023-01-22T01:08:19.328Z,101453.34
2023-01-22T01:10:48.581Z,101450.75
2023-01-22T01:13:17.384Z,101454.25
2023-01-22T01:15:47.176Z,101454.28
2023-01-22T01:18:18.268Z,101459.38
2023-01-22T01:20:55.998Z,101459.50
2023-01-22T01:23:25.125Z,101461.19
2023-01-22T01:25:54.451Z,101458.59
2023-01-22T01:28:24.934Z,101461.16
2023-01-22T01:30:54.038Z,101455.97
2023-01-22T01:33:24.269Z,101471.56
2023-01-22T01:36:01.609Z,101470.72
2023-01-22T01:38:34.417Z,101467.22
2023-01-22T01:41:03.842Z,101464.66
2023-01-22T01:43:33.047Z,101471.56
2023-01-22T01:46:05.577Z,101474.13
2023-01-22T01:48:40.698Z,101474.94
2023-01-22T01:51:16.140Z,101474.13
2023-01-22T01:53:49.521Z,101473.19
2023-01-22T01:56:22.796Z,101477.66
2023-01-22T01:58:56.396Z,101478.50
2023-01-22T02:01:27.296Z,101478.50
2023-01-22T02:03:58.567Z,101482.09
2023-01-22T02:06:28.425Z,101475.94
2023-01-22T02:09:00.445Z,101475.94
2023-01-22T02:11:31.778Z,101480.25
2023-01-22T02:14:05.486Z,101481.13
2023-01-22T02:16:34.831Z,101486.25
2023-01-22T02:19:05.173Z,101486.44
2023-01-22T02:21:42.281Z,101490.72
2023-01-22T02:24:14.155Z,101487.28
2023-01-22T02:26:46.010Z,101487.28
2023-01-22T02:29:19.319Z,101491.63
2023-01-22T02:31:50.017Z,101476.91
2023-01-22T02:34:24.563Z,101488.06
2023-01-22T02:36:56.264Z,101491.53
2023-01-22T02:39:25.096Z,101484.63
2023-01-22T02:41:55.469Z,101475.16
2023-01-22T02:44:24.341Z,101488.13
2023-01-22T02:46:53.467Z,101485.47
2023-01-22T02:49:22.299Z,101489.06
2023-01-22T02:51:52.458Z,101478.59
2023-01-22T02:54:24.296Z,101496.88
2023-01-22T02:56:53.406Z,101495.94
2023-01-22T02:59:22.187Z,101494.16
2023-01-22T03:01:51.916Z,101495.03
2023-01-22T03:04:21.004Z,101502.84
2023-01-22T03:06:50.196Z,101508.81
2023-01-22T03:09:19.625Z,101508.81
2023-01-22T03:11:50.176Z,101515.78
2023-01-22T03:14:45.297Z,101503.81
2023-01-22T03:17:31.914Z,101524.44
2023-01-22T03:20:19.344Z,101527.06
2023-01-22T03:22:50.021Z,101532.19
2023-01-22T03:25:18.988Z,101533.97
2023-01-22T03:28:07.827Z,101542.59
2023-01-22T03:30:39.898Z,101531.25
2023-01-22T03:33:10.250Z,101527.88
2023-01-22T03:35:39.667Z,101526.97
2023-01-22T03:38:19.427Z,101524.38
2023-01-22T03:40:48.630Z,101533.88
2023-01-22T03:43:19.181Z,101540.78
2023-01-22T03:45:48.277Z,101540.00
2023-01-22T03:48:21.418Z,101545.16
2023-01-22T03:50:50.505Z,101544.31
2023-01-22T03:53:19.582Z,101550.53
2023-01-22T03:55:59.591Z,101558.31
2023-01-22T03:58:32.800Z,101566.13
2023-01-22T04:01:04.495Z,101559.22
2023-01-22T04:03:34.545Z,101554.84
2023-01-22T04:06:04.036Z,101554.84
2023-01-22T04:08:35.368Z,101555.78
2023-01-22T04:11:05.597Z,101560.91
2023-01-22T04:13:38.908Z,101565.22
2023-01-22T04:16:10.883Z,101573.94
2023-01-22T04:18:58.617Z,101571.41
2023-01-22T04:21:45.175Z,101569.72
2023-01-22T04:24:17.131Z,101568.81
2023-01-22T04:26:46.321Z,101563.69
2023-01-22T04:29:19.035Z,101573.16
2023-01-22T04:31:48.170Z,101576.47
2023-01-22T04:34:35.748Z,101585.28
2023-01-22T04:37:26.157Z,101577.50
2023-01-22T04:39:55.342Z,101579.19
2023-01-22T04:42:24.475Z,101583.59
2023-01-22T04:44:54.977Z,101586.25
2023-01-22T04:47:23.903Z,101600.91
2023-01-22T04:49:52.990Z,101592.97
2023-01-22T04:52:22.112Z,101595.59
2023-01-22T04:54:53.912Z,101599.13
2023-01-22T04:57:22.840Z,101596.47
2023-01-22T04:59:54.281Z,101597.28
2023-01-22T05:02:23.849Z,101595.56
2023-01-22T05:04:53.898Z,101602.50
2023-01-22T05:07:22.858Z,101606.75
2023-01-22T05:09:51.914Z,101613.75
2023-01-22T05:12:21.306Z,101607.72
2023-01-22T05:14:55.076Z,101610.34
2023-01-22T05:17:25.040Z,101604.28
2023-01-22T05:19:54.125Z,101601.56
2023-01-22T05:22:23.759Z,101612.03
2023-01-22T05:24:52.823Z,101607.84
2023-01-22T05:27:21.698Z,101613.81
2023-01-22T05:30:02.302Z,101608.63
2023-01-22T05:32:47.200Z,101617.28
2023-01-22T05:35:16.644Z,101616.38
2023-01-22T05:37:47.656Z,101619.00
2023-01-22T05:40:17.540Z,101625.81
2023-01-22T05:42:46.682Z,101630.22
2023-01-22T05:45:18.062Z,101633.66
2023-01-22T05:48:00.731Z,101627.66
2023-01-22T05:50:38.733Z,101636.22
2023-01-22T05:53:11.402Z,101649.22
2023-01-22T05:55:40.434Z,101637.19
2023-01-22T05:58:10.187Z,101638.94
2023-01-22T06:00:40.710Z,101650.13
2023-01-22T06:03:12.178Z,101645.91
2023-01-22T06:05:57.627Z,101650.97
2023-01-22T06:08:27.212Z,101647.47
2023-01-22T06:11:05.103Z,101659.63
2023-01-22T06:13:35.448Z,101657.94
2023-01-22T06:16:13.725Z,101661.31
2023-01-22T06:19:01.073Z,101657.81
2023-01-22T06:21:36.186Z,101666.56
2023-01-22T06:24:05.703Z,101653.53
2023-01-22T06:26:35.161Z,101673.31
2023-01-22T06:29:05.525Z,101670.75
2023-01-22T06:31:36.483Z,101666.44
2023-01-22T06:34:09.887Z,101664.94
2023-01-22T06:36:39.099Z,101668.31
2023-01-22T06:39:08.623Z,101676.09
2023-01-22T06:41:43.616Z,101683.78
2023-01-22T06:44:17.774Z,101682.91
2023-01-22T06:46:48.761Z,101691.50
2023-01-22T06:49:25.238Z,101689.81
2023-01-22T06:51:54.374Z,101691.56
2023-01-22T06:54:23.268Z,101693.34
2023-01-22T06:56:52.429Z,101699.41
2023-01-22T06:59:24.335Z,101707.13
2023-01-22T07:01:54.813Z,101700.97
2023-01-22T07:04:23.652Z,101712.34
2023-01-22T07:06:52.720Z,101712.34
2023-01-22T07:09:21.523Z,101720.22
2023-01-22T07:11:51.067Z,101715.75
2023-01-22T07:14:32.358Z,101733.88
2023-01-22T07:17:07.199Z,101729.63
2023-01-22T07:19:36.023Z,101735.66
2023-01-22T07:22:05.107Z,101736.47
2023-01-22T07:24:33.907Z,101732.22
2023-01-22T07:27:03.563Z,101733.94
2023-01-22T07:29:32.396Z,101734.63
2023-01-22T07:32:01.480Z,101727.84
2023-01-22T07:34:31.612Z,101738.16
2023-01-22T07:37:02.032Z,101740.78
2023-01-22T07:39:31.162Z,101744.19
2023-01-22T07:42:01.519Z,101750.38
2023-01-22T07:44:32.636Z,101749.47
2023-01-22T07:47:01.801Z,101755.56
2023-01-22T07:49:35.336Z,101752.06
2023-01-22T07:52:04.549Z,101753.78
2023-01-22T07:54:36.307Z,101766.69
2023-01-22T07:57:06.170Z,101759.81
2023-01-22T07:59:37.070Z,101764.16
2023-01-22T08:02:06.212Z,101761.56
2023-01-22T08:04:36.375Z,101767.59
2023-01-22T08:07:05.468Z,101763.13
2023-01-22T08:09:37.998Z,101757.88
2023-01-22T08:12:07.353Z,101772.63
2023-01-22T08:14:36.161Z,101771.81
2023-01-22T08:17:05.457Z,101771.78
2023-01-22T08:19:35.598Z,101769.19
2023-01-22T08:22:06.247Z,101770.75
2023-01-22T08:24:35.489Z,101775.13
2023-01-22T08:27:05.113Z,101779.41
2023-01-22T08:29:33.871Z,101776.91
2023-01-22T08:32:03.015Z,101778.59
2023-01-22T08:34:31.834Z,101782.81
2023-01-22T08:37:02.310Z,101788.00
2023-01-22T08:39:31.125Z,101793.34
2023-01-22T08:42:00.182Z,101789.72
2023-01-22T08:44:29.059Z,101793.28
2023-01-22T08:46:58.902Z,101809.75
2023-01-22T08:49:27.746Z,101807.13
2023-01-22T08:51:57.164Z,101805.38
2023-01-22T08:54:27.376Z,101812.28
2023-01-22T08:56:56.437Z,101816.47
2023-01-22T08:59:25.388Z,101816.47
2023-01-22T09:01:54.497Z,101813.03
2023-01-22T09:04:23.326Z,101820.13
2023-01-22T09:06:52.457Z,101825.88
2023-01-22T09:09:21.453Z,101828.66
2023-01-22T09:11:52.039Z,101829.53
2023-01-22T09:14:21.027Z,101825.19
2023-01-22T09:16:50.194Z,101835.59
2023-01-22T09:19:19.295Z,101831.34
2023-01-22T09:21:48.356Z,101833.75
2023-01-22T09:24:17.388Z,101833.03
2023-01-22T09:26:46.510Z,101833.03
2023-01-22T09:29:16.794Z,101839.00
2023-01-22T09:31:45.938Z,101836.47
2023-01-22T09:34:14.773Z,101839.06
2023-01-22T09:36:44.146Z,101836.47
2023-01-22T09:39:12.939Z,101839.00
2023-01-22T09:41:48.525Z,101840.69
2023-01-22T09:44:24.001Z,101834.66
2023-01-22T09:47:00.105Z,101847.56
2023-01-22T09:49:38.020Z,101839.94
2023-01-22T09:52:07.705Z,101836.53
2023-01-22T09:54:36.619Z,101837.38
2023-01-22T09:57:14.828Z,101841.75
2023-01-22T09:59:53.443Z,101841.63
2023-01-22T10:02:29.078Z,101834.69
2023-01-22T10:05:05.232Z,101846.78
2023-01-22T10:07:39.418Z,101843.34
2023-01-22T10:10:22.120Z,101847.59
2023-01-22T10:12:59.765Z,101844.22
2023-01-22T10:15:29.944Z,101847.75
2023-01-22T10:17:59.797Z,101839.00
2023-01-22T10:20:29.237Z,101846.78
2023-01-22T10:23:09.913Z,101838.16
2023-01-22T10:25:39.063Z,101832.06
2023-01-22T10:28:08.800Z,101837.19
2023-01-22T10:30:47.493Z,101836.38
2023-01-22T10:33:21.862Z,101831.09
2023-01-22T10:35:56.667Z,101831.22
2023-01-22T10:38:30.061Z,101837.25
2023-01-22T10:41:02.316Z,101838.03
2023-01-22T10:43:34.852Z,101831.16
2023-01-22T10:46:17.873Z,101825.78
2023-01-22T10:48:47.013Z,101831.97
2023-01-22T10:51:18.131Z,101833.69
2023-01-22T10:53:53.193Z,101829.41
2023-01-22T10:56:33.718Z,101825.81
2023-01-22T10:59:19.601Z,101824.00
2023-01-22T11:01:52.910Z,101819.50
2023-01-22T11:04:26.052Z,101820.44
2023-01-22T11:06:59.603Z,101822.13
2023-01-22T11:09:41.607Z,101819.41
2023-01-22T11:12:21.238Z,101817.66
2023-01-22T11:15:07.920Z,101828.03
2023-01-22T11:17:41.696Z,101835.00
2023-01-22T11:20:23.314Z,101829.72
2023-01-22T11:23:14.883Z,101815.09
2023-01-22T11:25:54.461Z,101825.63
2023-01-22T11:28:41.807Z,101822.28
2023-01-22T11:31:32.361Z,101828.25
2023-01-22T11:34:36.607Z,101823.09
2023-01-22T11:37:14.578Z,101825.69
2023-01-22T11:40:05.702Z,101819.72
2023-01-22T11:42:52.763Z,101818.03
2023-01-22T11:46:20.652Z,101819.84
2023-01-22T11:49:03.584Z,101811.09
2023-01-22T11:51:45.936Z,101818.00
2023-01-22T11:54:38.013Z,101820.63
2023-01-22T11:57:20.387Z,101816.41
2023-01-22T12:00:32.156Z,101812.28
2023-01-22T12:03:44.512Z,101813.84
2023-01-22T12:06:39.278Z,101814.84
2023-01-22T12:09:20.029Z,101814.81
2023-01-22T12:12:10.664Z,101815.00
2023-01-22T12:15:03.721Z,101820.13
2023-01-22T12:17:57.891Z,101821.81
2023-01-22T12:20:45.652Z,101822.63
2023-01-22T12:23:22.427Z,101824.41
2023-01-22T12:26:00.541Z,101826.06
2023-01-22T12:28:41.581Z,101830.53
2023-01-22T12:31:18.229Z,101825.25
2023-01-22T12:33:47.481Z,101826.94
2023-01-22T12:36:24.280Z,101825.28
2023-01-22T12:39:00.713Z,101827.09
2023-01-22T12:41:47.025Z,101827.84
2023-01-22T12:44:31.859Z,101820.13
2023-01-22T12:47:12.615Z,101829.50
2023-01-22T12:49:50.444Z,101830.41
2023-01-22T12:52:32.114Z,101832.19
2023-01-22T12:55:02.547Z,101828.63
2023-01-22T12:57:42.070Z,101833.78
2023-01-22T13:00:34.148Z,101837.19
2023-01-22T13:03:05.792Z,101836.41
2023-01-22T13:05:44.872Z,101836.41
2023-01-22T13:08:43.001Z,101839.66
2023-01-22T13:11:15.331Z,101834.78
2023-01-22T13:13:55.170Z,101838.25
2023-01-22T13:16:33.937Z,101840.84
2023-01-22T13:19:22.196Z,101845.22
2023-01-22T13:21:52.098Z,101851.28
2023-01-22T13:24:22.937Z,101853.78
2023-01-22T13:26:56.684Z,101852.06
2023-01-22T13:29:32.865Z,101855.38
2023-01-22T13:32:05.536Z,101851.19
2023-01-22T13:34:34.359Z,101852.19
2023-01-22T13:37:03.493Z,101854.03
2023-01-22T13:39:35.127Z,101853.06
2023-01-22T13:42:06.603Z,101854.84
2023-01-22T13:44:40.972Z,101844.50
2023-01-22T13:47:28.009Z,101852.16
2023-01-22T13:49:57.117Z,101854.75
2023-01-22T13:52:28.332Z,101841.88
2023-01-22T13:55:05.376Z,101840.03
2023-01-22T13:57:34.708Z,101837.59
2023-01-22T14:00:06.909Z,101849.59
2023-01-22T14:02:36.676Z,101854.81
2023-01-22T14:05:17.697Z,101859.97
2023-01-22T14:07:47.046Z,101867.69
2023-01-22T14:10:21.791Z,101872.13
2023-01-22T14:13:01.616Z,101875.63
2023-01-22T14:15:32.744Z,101880.75
2023-01-22T14:18:10.761Z,101886.00
2023-01-22T14:20:41.461Z,101887.66
2023-01-22T14:23:11.133Z,101884.28
2023-01-22T14:25:41.671Z,101893.78
2023-01-22T14:28:11.196Z,101888.59
2023-01-22T14:30:41.643Z,101895.44
2023-01-22T14:33:17.664Z,101896.41
2023-01-22T14:35:46.483Z,101898.03
2023-01-22T14:38:15.874Z,101905.88
2023-01-22T14:40:44.649Z,101902.44
2023-01-22T14:43:13.965Z,101899.97
2023-01-22T14:45:47.067Z,101906.81
2023-01-22T14:48:19.205Z,101905.97
2023-01-22T14:50:48.438Z,101906.81
2023-01-22T14:53:19.316Z,101911.19
2023-01-22T14:55:48.277Z,101919.81
2023-01-22T14:58:17.383Z,101919.78
2023-01-22T15:00:47.585Z,101926.75
2023-01-22T15:03:16.641Z,101933.69
2023-01-22T15:05:46.071Z,101935.38
2023-01-22T15:08:15.158Z,101937.88
2023-01-22T15:10:43.970Z,101937.13
2023-01-22T15:13:13.069Z,101944.00
2023-01-22T15:15:42.000Z,101938.88
2023-01-22T15:18:12.546Z,101945.78
2023-01-22T15:20:41.344Z,101944.91
2023-01-22T15:23:10.469Z,101947.50
2023-01-22T15:25:39.314Z,101950.97
2023-01-22T15:28:08.412Z,101949.22
2023-01-22T15:30:37.347Z,101946.53
2023-01-22T15:33:06.455Z,101947.44
2023-01-22T15:35:36.616Z,101949.25
2023-01-22T15:38:05.835Z,101944.94
2023-01-22T15:40:36.974Z,101963.09
2023-01-22T15:43:06.217Z,101963.94
2023-01-22T15:45:35.120Z,101965.59
2023-01-22T15:48:04.257Z,101967.44
2023-01-22T15:50:33.976Z,101962.19
2023-01-22T15:53:04.410Z,101963.03
2023-01-22T15:55:33.195Z,101963.81
2023-01-22T15:58:02.288Z,101967.38
2023-01-22T16:00:31.570Z,101972.63
2023-01-22T16:03:00.666Z,101969.94
2023-01-22T16:05:29.483Z,101972.50
2023-01-22T16:07:58.567Z,101977.75
2023-01-22T16:10:28.899Z,101976.06
2023-01-22T16:12:58.235Z,101994.16
2023-01-22T16:15:27.152Z,101988.16
2023-01-22T16:17:56.336Z,101996.81
2023-01-22T16:20:25.202Z,102000.31
2023-01-22T16:22:54.306Z,101990.75
2023-01-22T16:25:23.175Z,101999.44
2023-01-22T16:27:53.627Z,102005.53
2023-01-22T16:30:22.589Z,102001.19
2023-01-22T16:32:53.513Z,102006.41
2023-01-22T16:35:22.333Z,102005.53
2023-01-22T16:37:51.436Z,102005.56
2023-01-22T16:40:20.532Z,102002.13
2023-01-22T16:43:02.848Z,102005.56
2023-01-22T16:45:31.574Z,102004.63
2023-01-22T16:48:01.660Z,101999.53
2023-01-22T16:50:30.439Z,101996.94
2023-01-22T16:52:59.687Z,102000.44
2023-01-22T16:55:28.645Z,102000.44
2023-01-22T16:57:58.892Z,102007.34
2023-01-22T17:00:29.197Z,102016.03
2023-01-22T17:02:59.998Z,102013.44
2023-01-22T17:05:28.766Z,102014.28
2023-01-22T17:07:57.916Z,102011.69
2023-01-22T17:10:26.749Z,102020.38
2023-01-22T17:12:55.890Z,102029.00
2023-01-22T17:15:24.732Z,102026.47
2023-01-22T17:17:55.219Z,102029.03
2023-01-22T17:20:24.004Z,102029.91
2023-01-22T17:22:53.806Z,102029.94
2023-01-22T17:25:22.573Z,102036.84
2023-01-22T17:27:51.769Z,102034.22
2023-01-22T17:30:21.871Z,102031.59
2023-01-22T17:32:51.314Z,102034.22
2023-01-22T17:35:22.142Z,102036.88
2023-01-22T17:37:51.347Z,102040.22
2023-01-22T17:40:20.422Z,102049.78
2023-01-22T17:42:49.551Z,102053.25
2023-01-22T17:45:18.834Z,102052.41
2023-01-22T17:47:48.255Z,102064.44
2023-01-22T17:50:17.910Z,102065.34
2023-01-22T17:52:48.366Z,102061.88
2023-01-22T17:55:17.707Z,102067.94
2023-01-22T17:57:47.037Z,102061.88
2023-01-22T18:00:17.541Z,102063.59
2023-01-22T18:02:46.648Z,102062.72
2023-01-22T18:05:15.962Z,102064.44
2023-01-22T18:07:45.107Z,102066.19
2023-01-22T18:10:15.415Z,102068.75
2023-01-22T18:12:45.461Z,102064.44
2023-01-22T18:15:14.349Z,102066.22
2023-01-22T18:17:43.464Z,102075.72
2023-01-22T18:20:13.254Z,102077.47
2023-01-22T18:22:42.375Z,102073.06
2023-01-22T18:25:11.720Z,102073.97
2023-01-22T18:27:42.193Z,102080.91
2023-01-22T18:30:12.701Z,102070.53
2023-01-22T18:32:41.777Z,102069.69
2023-01-22T18:35:11.602Z,102074.88
2023-01-22T18:37:40.745Z,102075.72
2023-01-22T18:40:11.540Z,102065.41
2023-01-22T18:42:42.041Z,102068.84
2023-01-22T18:45:12.369Z,102073.19
2023-01-22T18:47:41.509Z,102076.63
2023-01-22T18:50:14.013Z,102069.69
2023-01-22T18:52:44.630Z,102083.56
2023-01-22T18:55:15.805Z,102081.84
2023-01-22T18:57:52.143Z,102080.97
2023-01-22T19:00:21.813Z,102081.81
2023-01-22T19:02:56.055Z,102080.97
2023-01-22T19:05:26.395Z,102077.53
2023-01-22T19:07:55.908Z,102075.78
2023-01-22T19:10:25.123Z,102074.88
2023-01-22T19:12:55.596Z,102082.66
2023-01-22T19:15:25.134Z,102086.16
2023-01-22T19:17:54.837Z,102077.47
2023-01-22T19:20:23.778Z,102088.75
2023-01-22T19:22:53.373Z,102083.50
2023-01-22T19:25:22.312Z,102081.75
2023-01-22T19:27:51.509Z,102079.22
2023-01-22T19:30:23.135Z,102079.16
2023-01-22T19:32:55.586Z,102083.50
2023-01-22T19:35:24.732Z,102081.81
2023-01-22T19:37:54.222Z,102081.81
2023-01-22T19:40:23.078Z,102088.75
2023-01-22T19:42:52.166Z,102095.69
2023-01-22T19:45:22.390Z,102099.13
2023-01-22T19:47:51.539Z,102106.91
2023-01-22T19:50:22.658Z,102103.41
2023-01-22T19:52:51.751Z,102112.91
2023-01-22T19:55:21.237Z,102112.06
2023-01-22T19:57:50.447Z,102104.25
2023-01-22T20:00:21.805Z,102115.50
2023-01-22T20:02:50.958Z,102109.44
2023-01-22T20:05:20.792Z,102114.66
2023-01-22T20:07:50.235Z,102112.94
2023-01-22T20:10:19.208Z,102117.25
2023-01-22T20:12:51.797Z,102118.13
2023-01-22T20:15:22.466Z,102120.69
2023-01-22T20:17:51.955Z,102123.28
2023-01-22T20:20:22.636Z,102109.47
2023-01-22T20:22:54.405Z,102119.81
2023-01-22T20:25:23.445Z,102121.53
2023-01-22T20:27:52.709Z,102112.06
2023-01-22T20:30:22.964Z,102115.53
2023-01-22T20:32:52.224Z,102114.66
2023-01-22T20:35:21.351Z,102120.72
2023-01-22T20:37:50.554Z,102124.22
2023-01-22T20:40:19.796Z,102126.81
2023-01-22T20:42:51.237Z,102125.06
2023-01-22T20:45:20.294Z,102128.50
2023-01-22T20:47:51.041Z,102128.50
2023-01-22T20:50:20.400Z,102131.06
2023-01-22T20:52:49.537Z,102138.84
2023-01-22T20:55:19.889Z,102131.09
2023-01-22T20:57:49.292Z,102140.63
2023-01-22T21:00:19.507Z,102141.44
2023-01-22T21:02:52.377Z,102144.03
2023-01-22T21:05:21.346Z,102144.94
2023-01-22T21:07:50.548Z,102146.69
2023-01-22T21:10:19.796Z,102157.91
2023-01-22T21:12:49.332Z,102160.50
2023-01-22T21:15:18.414Z,102160.50
2023-01-22T21:17:47.564Z,102157.00
2023-01-22T21:20:18.438Z,102152.72
2023-01-22T21:22:47.659Z,102144.94
2023-01-22T21:25:16.813Z,102156.16
2023-01-22T21:27:45.937Z,102156.16
2023-01-22T21:30:15.285Z,102149.22
2023-01-22T21:32:44.394Z,102156.16
2023-01-22T21:35:13.212Z,102164.81
2023-01-22T21:37:43.727Z,102165.69
2023-01-22T21:40:14.923Z,102152.72
2023-01-22T21:43:01.742Z,102152.72
2023-01-22T21:45:48.364Z,102152.72
2023-01-22T21:48:17.522Z,102157.00
2023-01-22T21:50:46.354Z,102154.47
2023-01-22T21:53:16.795Z,102149.22
2023-01-22T21:55:52.886Z,102137.16
2023-01-22T21:58:22.343Z,102153.56
2023-01-22T22:00:51.208Z,102152.69
2023-01-22T22:03:20.364Z,102149.22
2023-01-22T22:05:57.244Z,102157.00
2023-01-22T22:08:28.086Z,102163.09
2023-01-22T22:10:57.545Z,102164.78
2023-01-22T22:13:26.657Z,102168.25
2023-01-22T22:15:55.615Z,102166.53
2023-01-22T22:18:24.743Z,102170.00
2023-01-22T22:20:53.521Z,102173.47
2023-01-22T22:23:22.611Z,102160.50
2023-01-22T22:25:53.132Z,102159.59
2023-01-22T22:28:22.263Z,102168.25
2023-01-22T22:30:51.129Z,102163.94
2023-01-22T22:33:20.448Z,102174.31
2023-01-22T22:35:49.487Z,102181.25
2023-01-22T22:38:18.532Z,102191.66
2023-01-22T22:40:57.889Z,102189.00
2023-01-22T22:43:28.435Z,102188.19
2023-01-22T22:45:57.229Z,102191.63
2023-01-22T22:48:26.297Z,102202.03
2023-01-22T22:50:55.131Z,102194.22
2023-01-22T22:53:24.234Z,102195.09
2023-01-22T22:55:53.089Z,102208.91
2023-01-22T22:58:22.190Z,102198.53
2023-01-22T23:00:53.498Z,102208.06
2023-01-22T23:03:22.617Z,102206.31
2023-01-22T23:05:53.503Z,102209.75
2023-01-22T23:08:22.559Z,102209.75
2023-01-22T23:10:51.359Z,102215.81
2023-01-22T23:13:20.480Z,102224.47
2023-01-22T23:15:49.374Z,102227.06
2023-01-22T23:18:20.257Z,102223.63
2023-01-22T23:20:49.059Z,102217.59
2023-01-22T23:23:18.184Z,102226.22
2023-01-22T23:25:47.874Z,102227.94
2023-01-22T23:28:16.981Z,102227.94
2023-01-22T23:30:45.915Z,102230.53
2023-01-22T23:33:15.007Z,102228.81
2023-01-22T23:35:45.192Z,102227.09
2023-01-22T23:38:14.301Z,102228.78
2023-01-22T23:40:43.075Z,102226.19
2023-01-22T23:43:12.220Z,102219.25
2023-01-22T23:45:41.085Z,102228.78
2023-01-22T23:48:10.324Z,102230.53
2023-01-22T23:50:39.067Z,102224.44
2023-01-22T23:53:09.527Z,102227.03
2023-01-22T23:55:38.411Z,102227.06
2023-01-22T23:58:07.871Z,102230.53
